createdAt,value
2023-02-17T00:03:05.016Z,8.1
2023-02-17T00:22:25.241Z,8.3
2023-02-17T00:41:43.638Z,8.3
2023-02-17T01:01:05.546Z,8.4
2023-02-17T01:20:21.816Z,8.5
2023-02-17T01:39:40.387Z,8.6
2023-02-17T01:58:59.997Z,8.7
2023-02-17T02:18:19.338Z,8.7
2023-02-17T02:37:38.425Z,8.9
2023-02-17T02:56:57.566Z,8.9
2023-02-17T03:16:16.201Z,9.1
2023-02-17T03:35:35.936Z,9.1
2023-02-17T03:54:55.424Z,9.1
2023-02-17T04:14:15.335Z,9.3
2023-02-17T04:33:34.451Z,9.2
2023-02-17T04:52:53.524Z,9.3
2023-02-17T05:12:12.098Z,9.3
2023-02-17T05:31:29.503Z,9.3
2023-02-17T05:50:47.466Z,9.4
2023-02-17T06:10:06.323Z,9.4
2023-02-17T06:29:23.725Z,9.4
2023-02-17T06:48:41.838Z,9.4
2023-02-17T07:08:01.528Z,9.5
2023-02-17T07:27:20.701Z,9.5
2023-02-17T07:46:40.415Z,9.5
2023-02-17T08:05:59.468Z,9.4
2023-02-17T08:25:18.053Z,9.5
2023-02-17T08:44:38.940Z,9.6
2023-02-17T09:03:56.604Z,9.8
2023-02-17T09:23:17.348Z,10.1
2023-02-17T09:42:38.695Z,10.6
2023-02-17T10:01:59.526Z,11
2023-02-17T10:21:18.848Z,11.4
2023-02-17T10:40:39.888Z,12.2
2023-02-17T11:00:00.152Z,12.8
2023-02-17T11:19:18.010Z,13.1
2023-02-17T11:38:38.135Z,13.3
2023-02-17T11:57:58.859Z,13.9
2023-02-17T12:17:18.998Z,14
2023-02-17T12:36:38.389Z,14.1
2023-02-17T12:55:54.684Z,13.8
2023-02-17T13:15:14.114Z,13.9
2023-02-17T13:34:33.707Z,14
2023-02-17T13:53:52.085Z,14
2023-02-17T14:13:10.738Z,13.9
2023-02-17T14:32:29.871Z,13.9
2023-02-17T14:51:48.849Z,13.7
2023-02-17T15:11:08.939Z,13.6
2023-02-17T15:30:28.643Z,13.4
2023-02-17T15:49:44.459Z,12.8
2023-02-17T16:09:02.454Z,12.6
2023-02-17T16:28:20.364Z,12.1
2023-02-17T16:47:38.301Z,11.7
2023-02-17T17:06:57.666Z,11.6
2023-02-17T17:26:16.241Z,11.7
2023-02-17T17:45:33.462Z,11.7
2023-02-17T18:04:52.386Z,11.6
2023-02-17T18:24:08.674Z,11.4
2023-02-17T18:43:26.750Z,11.4
2023-02-17T19:02:45.219Z,11.3
2023-02-17T19:22:04.269Z,11.3
2023-02-17T19:41:22.700Z,11.3
2023-02-17T20:00:41.430Z,11.2
2023-02-17T20:20:00.805Z,11.2
2023-02-17T20:39:19.719Z,11.1
2023-02-17T20:58:39.200Z,11.1
2023-02-17T21:17:58.137Z,10.9
2023-02-17T21:37:16.498Z,10.9
2023-02-17T21:56:35.404Z,10.9
2023-02-17T22:15:54.288Z,10.7
2023-02-17T22:35:12.968Z,10.5
2023-02-17T22:54:31.439Z,10.6
2023-02-17T23:13:50.583Z,10.6
2023-02-17T23:33:10.419Z,10.6
2023-02-17T23:52:29.466Z,10.4
